Time;durP1;ratioP1;P1;durP2;ratioP2;P2;SDS_P1;SDS_P2;PMS_P1;PMS_P2;Temp;Humidity;BMP_temperature;BMP_pressure;BME280_temperature;BME280_humidity;BME280_pressure;Samples;Min_cycle;Max_cycle;Signal;HPM_P1;HPM_P2
2023/04/07 00:01:08;;;;;;;15.13;8.48;;;;;;;5.62;100.00;98835.63;5015096;28;20040;-76
2023/04/07 00:03:34;;;;;;;14.27;7.93;;;;;;;5.61;100.00;98839.31;5019822;28;20069;-76
2023/04/07 00:05:59;;;;;;;15.00;7.82;;;;;;;5.46;100.00;98817.69;5032854;28;20020;-76
2023/04/07 00:08:25;;;;;;;12.68;7.55;;;;;;;5.53;100.00;98842.00;5043083;28;20027;-75
2023/04/07 00:10:50;;;;;;;15.38;7.97;;;;;;;5.64;100.00;98852.41;5034051;28;20119;-76
2023/04/07 00:13:15;;;;;;;16.90;8.88;;;;;;;5.63;100.00;98840.81;5036090;28;20030;-76
2023/04/07 00:15:41;;;;;;;15.48;7.93;;;;;;;5.60;100.00;98826.91;5034202;28;20434;-75
2023/04/07 00:18:06;;;;;;;16.10;8.55;;;;;;;5.57;100.00;98832.59;5034254;28;20104;-76
2023/04/07 00:20:31;;;;;;;16.35;9.13;;;;;;;5.48;100.00;98815.69;5015949;28;20523;-76
2023/04/07 00:22:56;;;;;;;14.90;8.50;;;;;;;5.52;100.00;98821.53;5031337;28;20041;-76
2023/04/07 00:25:22;;;;;;;17.30;8.32;;;;;;;5.52;100.00;98819.69;5014901;28;20478;-75
2023/04/07 00:27:47;;;;;;;15.30;7.90;;;;;;;5.59;100.00;98830.59;5021739;28;20449;-76
2023/04/07 00:30:14;;;;;;;16.45;8.10;;;;;;;5.56;100.00;98828.25;5014409;28;20029;-75
2023/04/07 00:32:39;;;;;;;14.85;7.97;;;;;;;5.27;100.00;98781.34;5031563;28;20030;-76
2023/04/07 00:35:05;;;;;;;14.45;7.90;;;;;;;5.52;100.00;98800.06;5021939;28;20040;-75
2023/04/07 00:37:30;;;;;;;17.02;8.50;;;;;;;5.49;100.00;98788.66;5038450;28;20029;-75
2023/04/07 00:39:58;;;;;;;13.25;7.65;;;;;;;5.57;100.00;98816.50;5019803;28;20026;-75
2023/04/07 00:42:23;;;;;;;14.65;7.30;;;;;;;5.52;100.00;98800.06;5046627;28;20028;-74
2023/04/07 00:44:48;;;;;;;14.40;6.80;;;;;;;5.41;100.00;98783.31;5033505;28;20025;-75
2023/04/07 00:47:14;;;;;;;16.17;8.65;;;;;;;5.48;100.00;98784.31;5033926;28;20029;-75
2023/04/07 00:49:40;;;;;;;17.30;8.48;;;;;;;5.57;100.00;98803.09;5014721;28;20028;-75
2023/04/07 00:52:06;;;;;;;14.18;7.90;;;;;;;5.42;100.00;98779.66;5035076;28;20033;-75
2023/04/07 00:54:32;;;;;;;13.55;6.97;;;;;;;5.29;100.00;98763.22;5033035;28;20029;-75
2023/04/07 00:56:57;;;;;;;15.23;8.10;;;;;;;5.55;100.00;98781.78;5015779;28;20598;-77
2023/04/07 00:59:23;;;;;;;13.20;7.10;;;;;;;5.62;100.00;98790.00;5019478;28;20020;-76
2023/04/07 01:02:11;;;;;;;14.32;7.10;;;;;;;5.51;100.00;98753.63;5002820;28;20033;-76
2023/04/07 01:04:43;;;;;;;14.65;7.57;;;;;;;5.60;100.00;98784.78;5028493;28;20049;-76
2023/04/07 01:07:50;;;;;;;14.60;8.00;;;;;;;5.57;100.00;98778.94;5015206;28;20033;-75
2023/04/07 01:10:22;;;;;;;16.15;7.68;;;;;;;5.59;100.00;98776.91;5033247;28;20080;-76
2023/04/07 01:13:07;;;;;;;15.02;8.70;;;;;;;5.61;100.00;98772.22;5030787;28;20029;-75
2023/04/07 01:15:34;;;;;;;13.32;6.97;;;;;;;5.59;100.00;98760.81;5025064;28;20031;-76
2023/04/07 01:18:14;;;;;;;11.02;6.20;;;;;;;5.54;100.00;98742.53;5012059;28;20026;-75
2023/04/07 01:20:42;;;;;;;17.27;6.38;;;;;;;5.46;100.00;98727.31;5047409;28;20079;-76
2023/04/07 01:23:12;;;;;;;11.50;5.93;;;;;;;5.43;100.00;98722.28;5034025;28;20482;-77
2023/04/07 01:25:58;;;;;;;13.45;7.15;;;;;;;5.53;100.00;98737.34;5015181;28;20033;-76
2023/04/07 01:28:26;;;;;;;13.90;7.53;;;;;;;5.68;100.00;98746.34;5027598;28;20032;-76
2023/04/07 01:30:55;;;;;;;12.27;6.97;;;;;;;5.56;100.00;98740.53;5026042;28;20056;-75
2023/04/07 01:33:22;;;;;;;11.15;6.03;;;;;;;5.59;100.00;98747.41;5014959;28;20076;-75
2023/04/07 01:35:49;;;;;;;14.00;6.47;;;;;;;5.54;100.00;98745.22;5013135;28;20038;-75
2023/04/07 01:38:16;;;;;;;14.02;7.05;;;;;;;5.35;100.00;98713.44;5020111;28;20083;-75
2023/04/07 01:40:43;;;;;;;13.55;6.50;;;;;;;5.45;100.00;98731.00;5032595;28;20037;-76
2023/04/07 01:43:10;;;;;;;14.45;7.07;;;;;;;5.38;100.00;98713.09;5032946;28;20029;-76
2023/04/07 01:45:36;;;;;;;13.70;7.25;;;;;;;5.26;100.00;98693.81;5014294;28;20079;-75
2023/04/07 01:48:05;;;;;;;12.40;6.95;;;;;;;5.44;100.00;98717.75;5014700;28;20116;-75
2023/04/07 01:50:30;;;;;;;14.65;6.60;;;;;;;5.52;100.00;98719.56;5031651;28;20483;-76
2023/04/07 01:52:56;;;;;;;14.32;6.82;;;;;;;5.49;100.00;98718.06;5029010;28;20048;-75
2023/04/07 01:55:21;;;;;;;12.55;7.40;;;;;;;5.51;100.00;98707.19;5035707;28;20099;-75
2023/04/07 01:57:47;;;;;;;12.60;6.72;;;;;;;5.56;100.00;98699.44;5016466;28;20026;-75
2023/04/07 02:00:13;;;;;;;11.30;6.95;;;;;;;5.61;100.00;98715.88;5019048;28;20085;-75
2023/04/07 02:02:43;;;;;;;11.93;7.25;;;;;;;5.39;100.00;98666.47;5034971;28;20083;-75
2023/04/07 02:05:12;;;;;;;11.90;7.32;;;;;;;5.78;100.00;98725.50;5034100;28;20070;-75
2023/04/07 02:07:40;;;;;;;;;;;;;;;5.75;100.00;98728.53;5032674;28;20044;-74
2023/04/07 02:10:09;;;;;;;11.38;6.57;;;;;;;5.63;100.00;98712.00;5023146;28;19909;-75
2023/04/07 02:12:36;;;;;;;;;;;;;;;5.75;100.00;98725.03;5048245;28;20029;-75
2023/04/07 02:15:03;;;;;;;11.80;6.30;;;;;;;5.69;100.00;98705.09;5029208;28;20347;-75
2023/04/07 02:17:32;;;;;;;12.15;6.68;;;;;;;5.77;100.00;98715.78;5012535;28;20037;-75
2023/04/07 02:20:00;;;;;;;9.05;5.30;;;;;;;5.57;100.00;98690.38;5031791;28;20037;-75
2023/04/07 02:22:26;;;;;;;10.88;6.32;;;;;;;5.35;100.00;98673.19;5025815;28;20386;-75
2023/04/07 02:24:51;;;;;;;10.13;5.22;;;;;;;5.48;100.00;98694.94;5015118;28;20052;-75
2023/04/07 02:27:17;;;;;;;10.30;5.80;;;;;;;5.49;100.00;98697.44;5047395;28;20033;-76
2023/04/07 02:29:42;;;;;;;12.15;5.57;;;;;;;5.52;100.00;98688.22;5035702;28;20498;-75
2023/04/07 02:32:07;;;;;;;9.02;5.50;;;;;;;5.41;100.00;98670.63;5022324;28;20044;-75
2023/04/07 02:34:32;;;;;;;9.80;5.15;;;;;;;5.43;100.00;98662.44;5014825;28;20029;-75
2023/04/07 02:36:58;;;;;;;8.95;5.32;;;;;;;5.49;100.00;98683.19;5024312;28;20029;-75
2023/04/07 02:39:23;;;;;;;12.65;5.72;;;;;;;5.37;100.00;98661.28;5049200;28;20110;-75
2023/04/07 02:41:48;;;;;;;11.68;5.93;;;;;;;5.46;100.00;98668.28;5050748;28;20112;-74
2023/04/07 02:44:14;;;;;;;10.60;5.68;;;;;;;5.49;100.00;98677.81;5034893;28;20033;-75
2023/04/07 02:46:40;;;;;;;13.40;5.70;;;;;;;5.62;100.00;98688.84;5012806;28;20036;-75
2023/04/07 02:49:05;;;;;;;15.52;6.53;;;;;;;5.66;100.00;98683.97;5014153;28;20074;-74
2023/04/07 02:51:31;;;;;;;13.10;6.45;;;;;;;5.54;100.00;98663.88;4996390;28;20029;-75
2023/04/07 02:53:56;;;;;;;11.10;5.97;;;;;;;5.66;100.00;98651.78;5001679;28;20034;-75
2023/04/07 02:56:21;;;;;;;10.82;5.35;;;;;;;5.67;100.00;98664.16;5030828;28;20391;-75
2023/04/07 02:58:47;;;;;;;10.52;6.03;;;;;;;5.65;100.00;98655.44;5020204;28;20429;-75
2023/04/07 03:01:12;;;;;;;11.43;6.13;;;;;;;5.76;100.00;98673.81;5035013;28;20112;-75
2023/04/07 03:03:38;;;;;;;10.90;6.40;;;;;;;5.82;100.00;98691.09;5029593;28;20052;-75
2023/04/07 03:06:03;;;;;;;11.18;5.70;;;;;;;5.64;100.00;98656.47;5016832;28;20033;-75
2023/04/07 03:08:29;;;;;;;10.82;5.80;;;;;;;5.73;100.00;98660.75;5024807;28;20017;-75
2023/04/07 03:10:54;;;;;;;9.98;5.43;;;;;;;5.77;100.00;98659.41;5013416;28;20022;-74
2023/04/07 03:13:20;;;;;;;10.85;5.75;;;;;;;5.75;100.00;98663.28;5012892;28;20079;-76
2023/04/07 03:15:46;;;;;;;10.90;6.03;;;;;;;5.74;100.00;98654.41;5030412;28;20048;-74
2023/04/07 03:18:11;;;;;;;12.07;6.75;;;;;;;5.77;100.00;98648.69;5025092;28;20369;-75
2023/04/07 03:20:37;;;;;;;10.98;6.30;;;;;;;5.66;100.00;98636.50;5039191;28;20072;-75
2023/04/07 03:23:02;;;;;;;10.77;6.03;;;;;;;5.72;100.00;98643.00;5032475;28;20051;-74
2023/04/07 03:27:55;;;;;;;10.45;6.10;;;;;;;5.88;100.00;98667.06;5018364;28;20123;-66
2023/04/07 03:30:21;;;;;;;12.13;6.30;;;;;;;5.79;100.00;98651.16;5010921;28;20480;-65
2023/04/07 03:32:46;;;;;;;12.55;7.00;;;;;;;5.74;100.00;98642.81;5006965;28;20017;-65
2023/04/07 03:35:11;;;;;;;11.23;6.53;;;;;;;5.85;100.00;98656.69;5007970;28;20022;-65
2023/04/07 03:37:37;;;;;;;11.60;6.28;;;;;;;5.89;100.00;98660.69;5000670;28;20018;-65
2023/04/07 03:40:02;;;;;;;11.88;6.47;;;;;;;5.84;100.00;98652.34;4991560;28;20038;-65
2023/04/07 03:42:28;;;;;;;12.57;6.70;;;;;;;5.88;100.00;98644.75;5002104;28;20454;-65
2023/04/07 03:44:53;;;;;;;12.52;6.45;;;;;;;5.95;100.00;98644.91;4997551;28;20076;-65
2023/04/07 03:47:19;;;;;;;9.80;5.90;;;;;;;6.01;100.00;98645.03;4993228;28;20029;-67
2023/04/07 03:49:44;;;;;;;10.90;6.90;;;;;;;5.96;100.00;98642.03;4981858;28;20382;-66
2023/04/07 03:52:09;;;;;;;12.32;7.00;;;;;;;5.95;100.00;98650.25;4998763;28;20396;-65
2023/04/07 03:54:35;;;;;;;11.93;6.85;;;;;;;5.91;100.00;98642.53;4992620;28;20120;-65
2023/04/07 03:57:01;;;;;;;11.57;6.50;;;;;;;5.87;100.00;98643.09;4996163;28;20121;-65
2023/04/07 03:59:27;;;;;;;10.55;6.03;;;;;;;5.90;100.00;98648.09;5006136;28;20038;-65
2023/04/07 04:01:52;;;;;;;10.82;6.38;;;;;;;5.84;100.00;98644.28;4996719;28;20388;-68
2023/04/07 04:04:18;;;;;;;12.27;6.78;;;;;;;5.81;100.00;98658.03;4997994;28;20022;-67
2023/04/07 04:06:43;;;;;;;11.27;6.75;;;;;;;5.76;100.00;98648.84;5005310;28;20026;-68
2023/04/07 04:09:09;;;;;;;15.88;7.40;;;;;;;5.74;100.00;98649.03;4991329;28;20537;-67
2023/04/07 04:11:35;;;;;;;14.77;6.88;;;;;;;5.72;100.00;98653.75;4998445;28;20029;-67
2023/04/07 04:14:00;;;;;;;12.57;6.70;;;;;;;5.70;100.00;98648.53;4995209;28;20053;-67
2023/04/07 04:16:26;;;;;;;12.10;6.60;;;;;;;5.67;100.00;98645.38;4993741;28;20058;-67
2023/04/07 04:18:51;;;;;;;13.75;7.38;;;;;;;5.67;100.00;98646.19;5001562;28;20025;-68
2023/04/07 04:21:17;;;;;;;13.63;8.02;;;;;;;5.67;100.00;98638.16;4997069;28;20045;-68
2023/04/07 04:23:42;;;;;;;15.77;7.53;;;;;;;5.69;100.00;98641.50;4996232;28;20564;-69
2023/04/07 04:26:07;;;;;;;12.52;7.00;;;;;;;5.66;100.00;98652.59;5003439;28;20084;-70
2023/04/07 04:28:33;;;;;;;13.63;6.65;;;;;;;5.69;100.00;98646.03;4999277;28;20018;-70
2023/04/07 04:30:58;;;;;;;11.70;6.88;;;;;;;5.68;100.00;98647.03;5000226;28;20025;-69
2023/04/07 04:33:24;;;;;;;17.75;8.48;;;;;;;5.63;100.00;98644.91;4995079;28;20026;-69
2023/04/07 04:35:50;;;;;;;16.88;8.38;;;;;;;5.59;100.00;98645.41;4988211;28;20483;-69
2023/04/07 04:38:16;;;;;;;13.10;7.10;;;;;;;5.58;100.00;98649.97;4989851;28;20032;-69
2023/04/07 04:40:41;;;;;;;15.38;7.43;;;;;;;5.58;100.00;98652.66;4995267;28;20026;-69
2023/04/07 04:43:08;;;;;;;15.68;7.75;;;;;;;5.54;100.00;98643.25;5013334;28;20040;-68
2023/04/07 04:45:34;;;;;;;13.70;7.20;;;;;;;5.58;100.00;98643.72;4995520;28;20040;-68
2023/04/07 04:48:00;;;;;;;15.45;7.20;;;;;;;5.62;100.00;98647.75;5004316;28;20025;-68
2023/04/07 04:50:25;;;;;;;12.70;7.18;;;;;;;5.64;100.00;98641.19;4996616;28;20117;-68
2023/04/07 04:52:52;;;;;;;14.57;7.60;;;;;;;5.59;100.00;98645.41;4997547;28;20021;-69
2023/04/07 04:55:17;;;;;;;14.63;7.72;;;;;;;5.54;100.00;98639.75;5012117;28;20030;-68
2023/04/07 04:57:48;;;;;;;15.35;8.02;;;;;;;5.53;100.00;98636.22;4998239;28;20109;-68
2023/04/07 05:00:13;;;;;;;16.90;7.55;;;;;;;5.54;100.00;98645.09;4997248;28;20032;-68
2023/04/07 05:05:09;;;;;;;12.07;7.45;;;;;;;5.61;100.00;98624.63;5031122;23;20038;-76
2023/04/07 05:07:34;;;;;;;13.35;7.43;;;;;;;5.71;100.00;98641.31;5035589;28;20021;-73
2023/04/07 05:10:00;;;;;;;17.77;8.25;;;;;;;5.80;100.00;98634.06;5011676;28;20049;-78
2023/04/07 05:12:26;;;;;;;15.73;7.78;;;;;;;5.85;100.00;98650.47;4997287;28;20499;-78
2023/04/07 05:14:51;;;;;;;15.63;7.13;;;;;;;5.81;100.00;98639.25;4997737;28;20057;-77
2023/04/07 05:17:16;;;;;;;15.88;7.95;;;;;;;5.76;100.00;98625.50;4996252;28;20026;-77
2023/04/07 05:19:42;;;;;;;14.80;8.63;;;;;;;5.89;100.00;98649.09;4992355;28;20029;-77
2023/04/07 05:22:07;;;;;;;15.07;7.30;;;;;;;5.57;100.00;98609.88;4989549;28;20038;-78
2023/04/07 05:24:32;;;;;;;20.88;7.95;;;;;;;5.75;100.00;98639.97;5024154;28;20029;-77
2023/04/07 05:26:58;;;;;;;15.15;7.78;;;;;;;5.63;100.00;98611.84;4982401;28;20439;-77
2023/04/07 05:29:23;;;;;;;17.88;7.82;;;;;;;5.69;100.00;98625.41;5008611;28;20026;-77
2023/04/07 05:31:48;;;;;;;14.68;6.70;;;;;;;5.58;100.00;98609.69;5012232;28;20028;-77
2023/04/07 05:34:14;;;;;;;14.65;7.03;;;;;;;5.73;100.00;98647.34;5016948;28;20034;-76
2023/04/07 05:36:40;;;;;;;13.82;7.70;;;;;;;5.68;100.00;98628.25;4995074;28;20022;-79
2023/04/07 05:39:05;;;;;;;15.68;7.90;;;;;;;5.78;100.00;98628.84;4996143;28;20476;-76
2023/04/07 05:41:31;;;;;;;14.68;8.07;;;;;;;5.80;100.00;98631.38;5000215;28;20041;-73
2023/04/07 05:43:56;;;;;;;14.70;7.82;;;;;;;5.97;100.00;98640.19;5009727;28;20025;-73
2023/04/07 05:46:21;;;;;;;14.95;7.80;;;;;;;5.94;100.00;98622.59;5002434;28;20037;-74
2023/04/07 05:48:46;;;;;;;15.15;8.18;;;;;;;6.02;100.00;98627.06;5025211;28;20021;-73
2023/04/07 05:51:12;;;;;;;17.42;7.47;;;;;;;5.89;100.00;98598.94;5043769;28;20033;-74
2023/04/07 05:53:37;;;;;;;14.88;7.82;;;;;;;6.12;100.00;98624.97;5020043;28;20053;-74
2023/04/07 05:56:02;;;;;;;15.82;7.68;;;;;;;6.23;100.00;98621.03;5027024;28;20025;-70
2023/04/07 05:58:28;;;;;;;11.43;6.50;;;;;;;6.25;100.00;98625.22;5022421;28;20128;-73
2023/04/07 06:00:53;;;;;;;14.27;7.80;;;;;;;6.29;100.00;98629.22;5014010;28;20026;-72
2023/04/07 06:03:18;;;;;;;14.10;7.45;;;;;;;6.46;100.00;98634.44;5007991;28;20076;-72
2023/04/07 06:05:47;;;;;;;13.20;7.72;;;;;;;6.42;100.00;98634.00;5011650;28;20028;-73
2023/04/07 06:08:12;;;;;;;11.70;5.83;;;;;;;6.48;100.00;98638.63;5008279;28;20033;-74
2023/04/07 06:10:38;;;;;;;15.50;7.32;;;;;;;6.53;100.00;98638.09;5008304;28;20038;-78
2023/04/07 06:13:04;;;;;;;15.18;7.65;;;;;;;6.57;100.00;98620.56;4995562;28;20030;-73
2023/04/07 06:15:29;;;;;;;13.93;7.32;;;;;;;6.80;100.00;98634.78;5006114;28;20029;-78
2023/04/07 06:17:54;;;;;;;14.27;7.25;;;;;;;6.85;100.00;98619.97;4994848;28;20112;-77
2023/04/07 06:20:21;;;;;;;12.68;6.90;;;;;;;7.08;100.00;98631.50;5014239;28;20535;-77
2023/04/07 06:22:47;;;;;;;12.48;7.22;;;;;;;7.34;100.00;98635.59;4995328;28;20753;-78
2023/04/07 06:25:12;;;;;;;13.13;7.38;;;;;;;7.28;100.00;98620.16;5004845;28;20034;-78
2023/04/07 06:27:37;;;;;;;15.00;7.15;;;;;;;7.34;100.00;98619.44;5024793;28;20085;-79
2023/04/07 06:30:03;;;;;;;14.77;7.85;;;;;;;7.52;100.00;98624.41;5019466;28;20086;-78
2023/04/07 06:32:28;;;;;;;14.82;8.25;;;;;;;7.46;100.00;98629.50;5008512;28;20022;-78
2023/04/07 06:34:55;;;;;;;12.93;7.82;;;;;;;7.51;100.00;98633.50;5003137;28;20090;-78
2023/04/07 06:37:23;;;;;;;12.90;7.60;;;;;;;7.55;100.00;98622.19;5005930;28;20040;-79
2023/04/07 06:40:05;;;;;;;10.00;6.53;;;;;;;7.62;100.00;98616.84;5025671;28;20460;-79
2023/04/07 06:42:31;;;;;;;12.05;6.47;;;;;;;7.72;100.00;98624.66;4985521;28;20026;-79
2023/04/07 06:44:56;;;;;;;13.73;6.85;;;;;;;7.59;100.00;98610.00;5022412;28;20442;-78
2023/04/07 06:47:22;;;;;;;11.77;6.85;;;;;;;7.65;100.00;98598.50;5024146;28;20053;-74
2023/04/07 06:49:47;;;;;;;12.35;7.03;;;;;;;7.77;100.00;98624.91;5009966;28;20048;-73
2023/04/07 06:52:12;;;;;;;11.55;6.40;;;;;;;7.76;100.00;98607.09;5016218;28;20040;-73
2023/04/07 06:54:37;;;;;;;11.88;7.22;;;;;;;8.00;100.00;98612.13;5019121;28;20336;-76
2023/04/07 06:57:03;;;;;;;14.90;6.82;;;;;;;7.77;100.00;98585.34;4997329;28;20081;-77
2023/04/07 06:59:28;;;;;;;14.50;6.72;;;;;;;8.03;100.00;98605.50;5023614;28;20026;-78
2023/04/07 07:01:54;;;;;;;10.82;6.68;;;;;;;7.97;100.00;98592.81;4998791;28;20887;-78
2023/04/07 07:04:19;;;;;;;11.73;6.40;;;;;;;7.78;100.00;98573.56;4999308;28;20030;-78
2023/04/07 07:06:44;;;;;;;10.88;6.85;;;;;;;7.72;100.00;98605.78;5010347;28;20021;-78
2023/04/07 07:09:10;;;;;;;11.75;6.75;;;;;;;7.78;100.00;98599.63;5009766;28;20033;-78
2023/04/07 07:11:35;;;;;;;11.82;6.95;;;;;;;8.02;100.00;98595.78;4999373;28;20037;-78
2023/04/07 07:14:00;;;;;;;17.02;6.63;;;;;;;8.31;100.00;98600.19;5011345;28;20044;-78
2023/04/07 07:16:27;;;;;;;11.52;6.47;;;;;;;8.48;100.00;98603.47;4994196;28;20377;-79
2023/04/07 07:18:53;;;;;;;12.43;6.13;;;;;;;8.46;100.00;98605.50;5007868;28;20226;-75
2023/04/07 07:21:18;;;;;;;10.93;6.28;;;;;;;8.43;100.00;98604.03;5019704;28;20134;-76
2023/04/07 07:23:44;;;;;;;11.55;6.65;;;;;;;8.50;100.00;98607.63;5023172;28;20018;-75
2023/04/07 07:26:09;;;;;;;11.45;6.13;;;;;;;8.63;100.00;98576.41;5033775;28;20017;-77
2023/04/07 07:28:35;;;;;;;14.35;6.47;;;;;;;9.41;100.00;98604.06;5025621;28;20030;-75
2023/04/07 07:31:09;;;;;;;10.23;6.00;;;;;;;11.16;100.00;98600.34;5012827;28;20143;-78
2023/04/07 07:33:34;;;;;;;10.65;5.95;;;;;;;15.21;100.00;98593.63;5009349;28;20013;-77
2023/04/07 07:36:00;;;;;;;7.53;5.28;;;;;;;18.31;76.05;98571.63;5025150;28;20061;-78
2023/04/07 07:38:26;;;;;;;8.10;5.07;;;;;;;22.34;59.27;98588.28;5018939;28;20118;-77
2023/04/07 07:40:57;;;;;;;10.25;5.25;;;;;;;24.62;49.56;98569.50;5014897;28;20044;-75
2023/04/07 07:43:22;;;;;;;7.07;4.85;;;;;;;26.14;44.36;98591.03;4998597;28;20515;-76
2023/04/07 07:45:47;;;;;;;7.90;5.45;;;;;;;26.99;41.12;98586.56;4999283;28;20029;-75
2023/04/07 07:48:12;;;;;;;8.02;5.38;;;;;;;25.72;41.95;98595.78;5000855;28;20114;-76
2023/04/07 07:50:38;;;;;;;8.75;5.10;;;;;;;24.39;45.14;98592.50;5012525;28;20475;-78
2023/04/07 07:53:03;;;;;;;6.95;5.13;;;;;;;22.01;47.56;98604.44;5001067;28;20034;-76
2023/04/07 07:55:28;;;;;;;6.68;5.28;;;;;;;18.59;55.64;98594.31;5019223;28;20030;-76
2023/04/07 07:57:54;;;;;;;8.77;5.32;;;;;;;16.62;61.38;98615.81;5002375;28;20042;-73
2023/04/07 08:00:20;;;;;;;9.07;6.07;;;;;;;14.73;100.00;98608.34;4999714;28;20022;-75
2023/04/07 08:02:45;;;;;;;7.82;5.55;;;;;;;14.07;100.00;98612.84;5020195;28;20025;-76
2023/04/07 08:05:11;;;;;;;8.18;6.07;;;;;;;13.54;100.00;98603.47;4999236;28;20025;-78
2023/04/07 08:07:47;;;;;;;9.10;6.05;;;;;;;13.55;100.00;98614.13;5002179;28;20030;-74
2023/04/07 08:10:20;;;;;;;7.65;5.30;;;;;;;13.55;100.00;98624.19;4991242;28;20574;-74
2023/04/07 08:12:46;;;;;;;8.48;5.47;;;;;;;13.40;100.00;98615.56;4996229;28;20083;-76
2023/04/07 08:15:12;;;;;;;8.43;5.25;;;;;;;13.28;100.00;98619.06;4999420;28;20547;-77
2023/04/07 08:17:37;;;;;;;8.27;5.13;;;;;;;13.71;100.00;98622.75;5001725;28;20033;-77
2023/04/07 08:20:04;;;;;;;9.05;5.30;;;;;;;15.08;97.67;98611.06;5004889;28;20029;-78
2023/04/07 08:22:29;;;;;;;7.57;4.95;;;;;;;19.07;72.68;98599.91;5007619;28;20025;-77
2023/04/07 08:24:55;;;;;;;10.18;5.05;;;;;;;20.87;59.21;98592.03;5004615;28;20022;-79
2023/04/07 08:27:20;;;;;;;6.85;4.70;;;;;;;22.92;51.98;98586.47;4995177;28;20105;-79
2023/04/07 08:29:57;;;;;;;8.05;5.63;;;;;;;22.89;50.31;98606.34;4997287;28;20531;-76
2023/04/07 08:32:22;;;;;;;6.95;5.13;;;;;;;24.19;47.06;98600.00;5014655;28;20064;-76
2023/04/07 08:34:48;;;;;;;6.72;4.60;;;;;;;25.53;42.53;98605.03;5011034;28;20535;-77
2023/04/07 08:37:13;;;;;;;7.25;4.88;;;;;;;26.14;39.72;98586.31;5036480;28;20040;-79
2023/04/07 08:39:39;;;;;;;7.65;4.60;;;;;;;28.48;38.76;98588.78;5022100;28;20107;-79
2023/04/07 08:42:06;;;;;;;7.78;4.68;;;;;;;30.42;34.30;98591.41;5001880;28;20049;-83
2023/04/07 08:44:32;;;;;;;7.30;4.80;;;;;;;29.59;35.53;98592.84;5013739;28;20054;-82
2023/04/07 08:47:00;;;;;;;6.07;4.75;;;;;;;24.58;39.99;98609.97;5029866;28;20034;-83
2023/04/07 08:49:28;;;;;;;6.60;4.55;;;;;;;23.43;43.59;98609.19;5036141;28;20033;-79
2023/04/07 08:51:55;;;;;;;6.67;5.03;;;;;;;20.92;49.12;98618.72;5009163;28;20026;-79
2023/04/07 08:54:22;;;;;;;9.90;5.50;;;;;;;20.75;51.85;98606.09;5019445;28;20323;-78
2023/04/07 08:56:48;;;;;;;6.47;4.32;;;;;;;21.79;49.41;98605.63;5013604;28;20025;-77
2023/04/07 08:59:24;;;;;;;6.35;4.68;;;;;;;21.41;49.52;98602.47;5012614;28;20026;-79
2023/04/07 09:01:50;;;;;;;7.88;4.70;;;;;;;21.67;48.88;98625.22;5009014;28;20425;-80
2023/04/07 09:04:16;;;;;;;7.45;4.80;;;;;;;23.50;46.80;98607.72;5031673;28;20030;-78
2023/04/07 09:06:42;;;;;;;6.78;4.60;;;;;;;25.18;42.96;98606.53;5002702;28;20034;-73
2023/04/07 09:09:08;;;;;;;7.03;4.35;;;;;;;26.76;41.88;98613.50;5014482;28;20018;-74
2023/04/07 09:11:36;;;;;;;7.57;4.80;;;;;;;26.62;40.06;98621.88;5019263;28;20101;-75
2023/04/07 09:14:01;;;;;;;7.60;4.67;;;;;;;27.05;39.17;98620.56;5013773;28;20123;-74
2023/04/07 09:16:28;;;;;;;6.35;4.35;;;;;;;26.18;40.43;98620.63;5012784;28;20060;-74
2023/04/07 09:18:53;;;;;;;6.13;4.05;;;;;;;25.74;40.57;98613.75;5012168;28;20491;-75
2023/04/07 09:21:19;;;;;;;5.93;4.50;;;;;;;23.83;43.77;98628.06;4989169;28;20030;-76
2023/04/07 09:23:44;;;;;;;8.90;5.10;;;;;;;20.32;47.87;98626.59;5007902;28;20069;-73
2023/04/07 09:26:23;;;;;;;7.13;4.95;;;;;;;17.49;55.54;98649.16;4986347;28;20026;-72
2023/04/07 09:28:56;;;;;;;8.80;5.15;;;;;;;15.73;67.51;98648.25;5034335;23;20954;-72
2023/04/07 09:31:25;;;;;;;6.70;4.47;;;;;;;16.03;76.62;98644.47;4984462;28;20030;-71
2023/04/07 09:33:52;;;;;;;7.07;4.53;;;;;;;16.43;75.50;98639.78;5009407;28;20022;-71
2023/04/07 09:36:18;;;;;;;7.53;4.95;;;;;;;16.92;74.37;98646.66;4992659;28;20315;-71
2023/04/07 09:38:44;;;;;;;7.15;4.75;;;;;;;17.34;71.59;98640.72;5012353;28;20068;-71
2023/04/07 09:41:18;;;;;;;7.05;4.93;;;;;;;17.40;72.72;98631.53;5008291;28;20060;-72
2023/04/07 09:43:45;;;;;;;10.02;5.22;;;;;;;17.42;68.02;98613.78;4998892;28;20493;-73
2023/04/07 09:46:16;;;;;;;9.38;5.40;;;;;;;17.46;68.46;98645.00;4992006;28;20045;-73
2023/04/07 09:48:44;;;;;;;8.85;4.70;;;;;;;18.70;63.89;98634.41;4987075;28;20108;-72
2023/04/07 09:51:11;;;;;;;8.63;4.57;;;;;;;18.89;62.71;98629.41;5004876;28;20034;-72
2023/04/07 09:53:51;;;;;;;6.95;4.63;;;;;;;22.54;55.75;98627.56;5011165;28;20034;-71
2023/04/07 09:56:18;;;;;;;4.70;3.38;;;;;;;27.23;45.59;98616.78;5015805;28;20088;-72
2023/04/07 09:58:46;;;;;;;7.05;3.65;;;;;;;27.84;40.02;98616.28;4994805;28;20026;-72
2023/04/07 10:01:13;;;;;;;6.55;3.83;;;;;;;27.45;40.25;98617.88;4999730;28;20096;-73
2023/04/07 10:03:38;;;;;;;5.80;4.25;;;;;;;29.18;39.15;98619.38;5010871;28;20022;-72
2023/04/07 10:06:07;;;;;;;6.13;3.65;;;;;;;28.58;37.72;98616.28;5007856;28;20037;-73
2023/04/07 10:08:36;;;;;;;;;;;;;;;27.74;39.74;98623.72;5005602;28;20483;-73
2023/04/07 10:11:03;;;;;;;4.70;3.10;;;;;;;27.47;38.70;98621.16;5015026;28;19933;-73
2023/04/07 10:13:30;;;;;;;4.95;2.90;;;;;;;29.90;37.09;98624.06;4988734;28;20125;-72
2023/04/07 10:15:56;;;;;;;5.43;3.75;;;;;;;27.72;38.90;98614.91;5003212;28;20034;-72
2023/04/07 10:18:30;;;;;;;7.00;3.35;;;;;;;28.51;38.80;98618.75;5005585;28;20040;-74
2023/04/07 10:20:56;;;;;;;4.50;2.25;;;;;;;28.22;37.26;98605.44;4982723;28;20024;-73
2023/04/07 10:23:42;;;;;;;3.80;2.28;;;;;;;26.24;39.07;98615.78;4989289;28;20061;-72
2023/04/07 10:26:08;;;;;;;6.78;2.97;;;;;;;24.78;41.72;98617.09;5009189;28;20064;-72
2023/04/07 10:28:39;;;;;;;4.45;3.05;;;;;;;22.16;45.99;98622.81;5014215;28;20021;-72
2023/04/07 10:31:04;;;;;;;5.40;3.05;;;;;;;20.81;48.02;98626.16;5004465;28;20109;-73
2023/04/07 10:33:51;;;;;;;5.60;3.05;;;;;;;19.31;51.86;98628.63;5004738;28;20104;-72
2023/04/07 10:36:20;;;;;;;7.68;3.65;;;;;;;18.59;54.80;98630.75;4989991;28;20037;-75
2023/04/07 10:39:08;;;;;;;5.82;2.70;;;;;;;18.44;56.55;98624.31;4991809;28;20061;-75
2023/04/07 10:41:37;;;;;;;8.93;3.00;;;;;;;19.23;54.00;98623.59;4984646;28;20025;-75
2023/04/07 10:44:04;;;;;;;5.55;3.20;;;;;;;19.22;55.73;98624.72;4999802;28;20025;-75
2023/04/07 10:46:44;;;;;;;6.03;3.05;;;;;;;23.05;47.98;98609.00;4997154;28;20075;-71
2023/04/07 10:49:10;;;;;;;7.05;2.70;;;;;;;24.68;44.61;98592.38;5009869;28;20120;-71
2023/04/07 10:51:36;;;;;;;4.22;2.10;;;;;;;29.83;37.17;98598.66;4994374;28;20069;-74
2023/04/07 10:54:22;;;;;;;5.22;2.15;;;;;;;30.55;33.62;98604.31;4993081;28;20030;-75
2023/04/07 10:57:02;;;;;;;4.15;2.10;;;;;;;32.58;32.46;98598.50;4989644;28;20443;-74
2023/04/07 10:59:32;;;;;;;6.97;2.70;;;;;;;30.20;34.26;98603.72;4990525;28;20062;-74
2023/04/07 11:02:13;;;;;;;6.63;2.33;;;;;;;25.31;38.91;98614.03;5011611;28;20068;-73
2023/04/07 11:04:43;;;;;;;5.50;2.28;;;;;;;22.91;42.29;98620.69;5015669;28;20025;-73
2023/04/07 11:07:09;;;;;;;4.93;2.35;;;;;;;21.89;46.29;98618.53;5014530;28;20791;-72
2023/04/07 11:09:35;;;;;;;4.65;2.40;;;;;;;21.40;48.58;98599.97;5002285;28;20060;-73
2023/04/07 11:12:01;;;;;;;5.20;2.47;;;;;;;21.19;49.49;98613.72;5007157;28;20098;-74
2023/04/07 11:14:28;;;;;;;6.18;2.70;;;;;;;21.17;48.87;98588.44;5012654;28;20054;-73
2023/04/07 11:16:53;;;;;;;6.63;2.60;;;;;;;21.05;51.32;98607.16;5010385;28;20026;-73
2023/04/07 11:19:19;;;;;;;3.97;2.55;;;;;;;20.52;50.72;98590.09;5016808;28;20036;-73
2023/04/07 11:21:44;;;;;;;6.68;2.70;;;;;;;21.07;49.58;98618.72;5017295;28;20067;-73
2023/04/07 11:24:10;;;;;;;3.80;2.30;;;;;;;22.78;47.71;98604.78;4999421;28;20144;-73
2023/04/07 11:26:40;;;;;;;6.90;2.42;;;;;;;27.08;40.82;98575.50;5007862;28;20025;-73
2023/04/07 11:29:05;;;;;;;4.80;2.05;;;;;;;27.67;38.39;98586.44;5008902;28;20085;-73
2023/04/07 11:31:31;;;;;;;6.85;2.75;;;;;;;26.20;38.46;98596.19;5013556;28;20438;-73
2023/04/07 11:33:57;;;;;;;5.70;2.45;;;;;;;24.57;40.40;98600.00;5017117;28;20108;-73